createdAt,value
2016-08-07T00:00:20.964Z,0
2016-08-07T00:01:33.927Z,0
2016-08-07T00:02:46.889Z,0
2016-08-07T00:03:59.867Z,0
2016-08-07T00:05:12.888Z,0
2016-08-07T00:06:25.850Z,0
2016-08-07T00:07:38.811Z,0
2016-08-07T00:08:51.790Z,0
2016-08-07T00:10:04.758Z,0
2016-08-07T00:11:17.933Z,0
2016-08-07T00:12:30.898Z,0
2016-08-07T00:13:43.882Z,0
2016-08-07T00:14:56.841Z,0
2016-08-07T00:16:09.808Z,0
2016-08-07T00:17:22.970Z,0
2016-08-07T00:18:35.948Z,0
2016-08-07T00:20:59.114Z,0
2016-08-07T00:22:12.079Z,0
2016-08-07T00:23:25.052Z,0
2016-08-07T00:24:38.011Z,0
2016-08-07T00:25:51.184Z,0
2016-08-07T00:27:04.162Z,0
2016-08-07T00:28:17.116Z,0
2016-08-07T00:29:30.283Z,0
2016-08-07T00:30:43.255Z,0
2016-08-07T00:31:56.222Z,0
2016-08-07T00:33:09.598Z,0
2016-08-07T00:34:22.570Z,0
2016-08-07T00:35:35.554Z,0
2016-08-07T00:36:48.737Z,0
2016-08-07T00:39:13.949Z,0
2016-08-07T00:40:26.910Z,0
2016-08-07T00:41:39.875Z,0
2016-08-07T00:42:52.858Z,0
2016-08-07T00:44:05.838Z,0
2016-08-07T00:45:19.195Z,0
2016-08-07T00:46:32.662Z,0
2016-08-07T00:47:45.649Z,0
2016-08-07T00:48:58.682Z,0
2016-08-07T00:50:11.858Z,0
2016-08-07T00:51:24.892Z,0
2016-08-07T00:52:37.861Z,0
2016-08-07T00:53:50.837Z,0
2016-08-07T00:55:03.875Z,0
2016-08-07T00:56:16.844Z,0
2016-08-07T00:57:29.798Z,0
2016-08-07T00:58:42.967Z,0
2016-08-07T00:59:55.935Z,0
2016-08-07T01:01:08.908Z,0
2016-08-07T01:02:22.172Z,0
2016-08-07T01:03:35.545Z,0
2016-08-07T01:04:48.505Z,0
2016-08-07T01:07:14.973Z,0
2016-08-07T01:08:28.147Z,0
2016-08-07T01:09:41.117Z,0
2016-08-07T01:10:54.097Z,0
2016-08-07T01:12:07.269Z,0
2016-08-07T01:13:20.301Z,0
2016-08-07T01:14:33.283Z,0
2016-08-07T01:15:46.245Z,0
2016-08-07T01:16:59.414Z,0
2016-08-07T01:18:12.944Z,0
2016-08-07T01:19:25.917Z,0
2016-08-07T01:20:39.092Z,0
2016-08-07T01:21:52.063Z,0
2016-08-07T01:23:05.032Z,0
2016-08-07T01:24:17.997Z,0
2016-08-07T01:25:30.962Z,0
2016-08-07T01:26:44.159Z,0
2016-08-07T01:27:57.132Z,0
2016-08-07T01:29:10.100Z,0
2016-08-07T01:30:24.755Z,0
2016-08-07T01:31:37.727Z,0
2016-08-07T01:32:50.689Z,0
2016-08-07T01:34:03.661Z,0
2016-08-07T01:35:16.762Z,0
2016-08-07T01:36:28.800Z,0
2016-08-07T01:37:41.963Z,0
2016-08-07T01:38:54.958Z,0
2016-08-07T01:40:08.230Z,0
2016-08-07T01:41:21.197Z,0
2016-08-07T01:42:34.197Z,0
2016-08-07T01:43:47.166Z,0
2016-08-07T01:45:00.150Z,0
2016-08-07T01:46:13.131Z,0
2016-08-07T01:47:26.100Z,0
2016-08-07T01:48:39.072Z,0
2016-08-07T01:49:52.047Z,0
2016-08-07T01:51:05.027Z,0
2016-08-07T01:52:18.078Z,0
2016-08-07T01:53:31.088Z,0
2016-08-07T01:54:44.059Z,0
2016-08-07T01:55:57.019Z,0
2016-08-07T01:57:09.994Z,0
2016-08-07T01:58:22.957Z,0
2016-08-07T01:59:35.925Z,0
2016-08-07T02:00:49.094Z,0
2016-08-07T02:02:02.118Z,0
2016-08-07T02:03:15.094Z,0
2016-08-07T02:04:28.070Z,0
2016-08-07T02:05:41.797Z,0
2016-08-07T02:06:55.036Z,0
2016-08-07T02:08:08.023Z,0
2016-08-07T02:09:21.201Z,0
2016-08-07T02:10:34.191Z,0
2016-08-07T02:11:47.157Z,0
2016-08-07T02:13:00.327Z,0
2016-08-07T02:14:13.300Z,0
2016-08-07T02:15:26.268Z,0
2016-08-07T02:16:39.245Z,0
2016-08-07T02:17:52.217Z,0
2016-08-07T02:19:05.181Z,0
2016-08-07T02:20:18.152Z,0
2016-08-07T02:21:29.268Z,0
2016-08-07T02:22:42.242Z,0
2016-08-07T02:23:55.444Z,0
2016-08-07T02:25:08.414Z,0
2016-08-07T02:26:21.398Z,0
2016-08-07T02:27:34.380Z,0
2016-08-07T02:28:49.988Z,0
2016-08-07T02:30:02.968Z,0
2016-08-07T02:31:16.266Z,0
2016-08-07T02:32:29.338Z,0
2016-08-07T02:33:42.302Z,0
2016-08-07T02:34:55.270Z,0
2016-08-07T02:36:08.233Z,0
2016-08-07T02:37:21.199Z,0
2016-08-07T02:38:34.173Z,0
2016-08-07T02:39:47.136Z,0
2016-08-07T02:41:00.306Z,0
2016-08-07T02:42:13.278Z,0
2016-08-07T02:43:26.242Z,0
2016-08-07T02:44:39.410Z,0
2016-08-07T02:45:52.382Z,0
2016-08-07T02:47:05.355Z,0
2016-08-07T02:48:18.328Z,0
2016-08-07T02:49:31.300Z,0
2016-08-07T02:50:44.523Z,0
2016-08-07T02:51:57.486Z,0
2016-08-07T02:53:10.444Z,0
2016-08-07T02:54:23.556Z,0
2016-08-07T02:55:36.641Z,0
2016-08-07T02:56:49.621Z,0
2016-08-07T02:58:02.601Z,0
2016-08-07T02:59:15.571Z,0
2016-08-07T03:00:29.111Z,0
2016-08-07T03:01:42.082Z,0
2016-08-07T03:02:55.071Z,0
2016-08-07T03:04:08.047Z,0
2016-08-07T03:05:21.072Z,0
2016-08-07T03:07:45.286Z,0
2016-08-07T03:08:58.256Z,0
2016-08-07T03:10:11.311Z,0
2016-08-07T03:11:24.538Z,0
2016-08-07T03:12:37.499Z,0
2016-08-07T03:13:50.480Z,0
2016-08-07T03:15:03.447Z,0
2016-08-07T03:16:16.963Z,0
2016-08-07T03:17:29.934Z,0
2016-08-07T03:18:42.898Z,0
2016-08-07T03:19:55.867Z,0
2016-08-07T03:21:08.828Z,0
2016-08-07T03:22:21.995Z,0
2016-08-07T03:23:34.975Z,0
2016-08-07T03:24:48.149Z,0
2016-08-07T03:26:01.323Z,0
2016-08-07T03:27:14.287Z,0
2016-08-07T03:28:27.268Z,0
2016-08-07T03:29:40.430Z,0
2016-08-07T03:30:53.399Z,0
2016-08-07T03:32:06.569Z,0
2016-08-07T03:33:19.537Z,0
2016-08-07T03:34:32.506Z,0
2016-08-07T03:35:45.495Z,0
2016-08-07T03:36:58.474Z,0
2016-08-07T03:38:11.603Z,0
2016-08-07T03:39:24.574Z,0
2016-08-07T03:40:37.564Z,0
2016-08-07T03:41:50.533Z,0
2016-08-07T03:43:05.927Z,0
2016-08-07T03:44:18.958Z,0
2016-08-07T03:45:31.929Z,0
2016-08-07T03:46:44.903Z,0
2016-08-07T03:47:57.870Z,0
2016-08-07T03:49:10.836Z,0
2016-08-07T03:50:24.007Z,0
2016-08-07T03:52:48.757Z,0
2016-08-07T03:54:01.752Z,0
2016-08-07T03:55:14.719Z,0
2016-08-07T03:56:27.691Z,5
2016-08-07T03:57:40.657Z,5
2016-08-07T03:58:53.832Z,5
2016-08-07T04:00:06.949Z,5
2016-08-07T04:01:19.929Z,5
2016-08-07T04:02:32.905Z,5
2016-08-07T04:03:45.866Z,5
2016-08-07T04:04:58.833Z,10
2016-08-07T04:06:11.842Z,10
2016-08-07T04:07:24.827Z,10
2016-08-07T04:08:37.848Z,10
2016-08-07T04:09:50.812Z,10
2016-08-07T04:11:04.680Z,15
2016-08-07T04:12:17.670Z,15
2016-08-07T04:13:30.830Z,15
2016-08-07T04:14:43.800Z,15
2016-08-07T04:15:56.975Z,15
2016-08-07T04:17:09.950Z,20
2016-08-07T04:18:23.335Z,20
2016-08-07T04:19:36.304Z,20
2016-08-07T04:20:49.275Z,25
2016-08-07T04:22:01.058Z,25
2016-08-07T04:23:14.220Z,25
2016-08-07T04:24:27.179Z,30
2016-08-07T04:25:40.152Z,30
2016-08-07T04:26:53.117Z,35
2016-08-07T04:28:06.602Z,35
2016-08-07T04:29:19.766Z,35
2016-08-07T04:30:33.211Z,45
2016-08-07T04:31:46.195Z,40
2016-08-07T04:32:59.160Z,40
2016-08-07T04:34:12.164Z,40
2016-08-07T04:35:25.574Z,45
2016-08-07T04:36:39.937Z,45
2016-08-07T04:37:52.906Z,45
2016-08-07T04:39:05.882Z,50
2016-08-07T04:40:18.848Z,50
2016-08-07T04:41:31.827Z,50
2016-08-07T04:42:45.196Z,65
2016-08-07T04:43:58.393Z,75
2016-08-07T04:45:12.310Z,105
2016-08-07T04:46:25.295Z,70
2016-08-07T04:47:38.254Z,70
2016-08-07T04:48:51.221Z,100
2016-08-07T04:50:04.192Z,100
2016-08-07T04:51:17.168Z,65
2016-08-07T04:52:30.210Z,100
2016-08-07T04:53:43.172Z,235
2016-08-07T04:54:56.144Z,305
2016-08-07T04:56:09.323Z,265
2016-08-07T04:57:22.316Z,260
2016-08-07T04:58:35.285Z,270
2016-08-07T04:59:48.255Z,300
2016-08-07T05:01:01.237Z,190
2016-08-07T05:02:14.454Z,230
2016-08-07T05:03:27.453Z,175
2016-08-07T05:04:40.619Z,135
2016-08-07T05:05:53.616Z,120
2016-08-07T05:07:04.737Z,130
2016-08-07T05:08:17.704Z,165
2016-08-07T05:09:30.722Z,105
2016-08-07T05:10:43.687Z,150
2016-08-07T05:11:56.664Z,150
2016-08-07T05:13:10.030Z,220
2016-08-07T05:14:23.196Z,530
2016-08-07T05:15:36.166Z,505
2016-08-07T05:16:49.137Z,195
2016-08-07T05:18:02.597Z,105
2016-08-07T05:19:15.674Z,145
2016-08-07T05:20:28.650Z,125
2016-08-07T05:21:41.681Z,120
2016-08-07T05:22:54.665Z,110
2016-08-07T05:24:07.639Z,115
2016-08-07T05:25:21.000Z,105
2016-08-07T05:26:33.981Z,105
2016-08-07T05:27:46.946Z,110
2016-08-07T05:28:59.913Z,110
2016-08-07T05:30:13.063Z,110
2016-08-07T05:31:26.030Z,110
2016-08-07T05:32:39.004Z,115
2016-08-07T05:33:51.976Z,125
2016-08-07T05:35:04.954Z,115
2016-08-07T05:36:18.141Z,130
2016-08-07T05:37:29.720Z,195
2016-08-07T05:38:42.900Z,170
2016-08-07T05:39:55.874Z,150
2016-08-07T05:41:08.891Z,125
2016-08-07T05:42:21.889Z,125
2016-08-07T05:43:34.860Z,130
2016-08-07T05:44:47.841Z,140
2016-08-07T05:46:00.806Z,135
2016-08-07T05:47:13.966Z,135
2016-08-07T05:48:27.133Z,155
2016-08-07T05:49:40.126Z,145
2016-08-07T05:50:53.089Z,140
2016-08-07T05:52:06.270Z,150
2016-08-07T05:53:19.255Z,140
2016-08-07T05:54:32.224Z,185
2016-08-07T05:55:45.191Z,195
2016-08-07T05:56:58.153Z,145
2016-08-07T05:58:11.196Z,175
2016-08-07T05:59:24.177Z,200
2016-08-07T06:00:37.144Z,235
2016-08-07T06:01:50.128Z,620
2016-08-07T06:03:03.136Z,1045
2016-08-07T06:04:16.130Z,1110
2016-08-07T06:05:29.301Z,1115
2016-08-07T06:06:42.296Z,1180
2016-08-07T06:07:55.273Z,1135
2016-08-07T06:09:08.244Z,970
2016-08-07T06:10:21.775Z,700
2016-08-07T06:11:34.759Z,455
2016-08-07T06:12:47.933Z,360
2016-08-07T06:14:00.909Z,310
2016-08-07T06:15:14.858Z,385
2016-08-07T06:16:27.844Z,285
2016-08-07T06:17:41.031Z,345
2016-08-07T06:18:54.042Z,435
2016-08-07T06:20:07.037Z,965
2016-08-07T06:21:20.016Z,785
2016-08-07T06:22:31.133Z,235
2016-08-07T06:23:44.114Z,350
2016-08-07T06:24:57.092Z,910
2016-08-07T06:26:10.064Z,390
2016-08-07T06:27:23.247Z,410
2016-08-07T06:28:36.222Z,620
2016-08-07T06:29:49.610Z,680
2016-08-07T06:31:02.598Z,1435
2016-08-07T06:32:16.820Z,560
2016-08-07T06:33:30.011Z,1135
2016-08-07T06:34:43.933Z,465
2016-08-07T06:35:56.909Z,480
2016-08-07T06:37:09.891Z,1380
2016-08-07T06:38:22.893Z,1415
2016-08-07T06:39:35.871Z,1480
2016-08-07T06:40:48.871Z,1505
2016-08-07T06:42:01.864Z,1430
2016-08-07T06:43:14.893Z,1525
2016-08-07T06:44:28.160Z,1480
2016-08-07T06:45:41.137Z,1560
2016-08-07T06:46:54.124Z,1465
2016-08-07T06:48:07.307Z,1475
2016-08-07T06:49:20.287Z,1575
2016-08-07T06:50:33.283Z,1550
2016-08-07T06:51:46.488Z,1600
2016-08-07T06:52:59.494Z,1655
2016-08-07T06:54:12.506Z,1640
2016-08-07T06:55:26.277Z,1730
2016-08-07T06:56:39.460Z,1750
2016-08-07T06:57:52.451Z,1700
2016-08-07T06:59:05.442Z,1655
2016-08-07T07:00:18.436Z,1680
2016-08-07T07:01:31.612Z,1640
2016-08-07T07:02:44.599Z,1045
2016-08-07T07:03:57.597Z,935
2016-08-07T07:05:11.617Z,1850
2016-08-07T07:06:24.750Z,1285
2016-08-07T07:07:36.089Z,1020
2016-08-07T07:08:49.072Z,565
2016-08-07T07:10:02.060Z,510
2016-08-07T07:11:16.858Z,490
2016-08-07T07:12:29.853Z,480
2016-08-07T07:13:42.838Z,485
2016-08-07T07:14:56.018Z,430
2016-08-07T07:16:09.014Z,550
2016-08-07T07:17:21.999Z,685
2016-08-07T07:18:34.993Z,405
2016-08-07T07:19:47.974Z,400
2016-08-07T07:21:00.973Z,400
2016-08-07T07:22:13.958Z,410
2016-08-07T07:23:26.947Z,420
2016-08-07T07:24:39.932Z,445
2016-08-07T07:25:52.933Z,390
2016-08-07T07:27:05.940Z,395
2016-08-07T07:28:18.951Z,395
2016-08-07T07:29:31.950Z,405
2016-08-07T07:30:44.935Z,415
2016-08-07T07:31:57.912Z,460
2016-08-07T07:33:11.029Z,465
2016-08-07T07:34:24.029Z,445
2016-08-07T07:35:38.310Z,450
2016-08-07T07:36:51.299Z,460
2016-08-07T07:38:04.299Z,435
2016-08-07T07:39:17.302Z,410
2016-08-07T07:40:30.315Z,385
2016-08-07T07:41:43.303Z,365
2016-08-07T07:42:56.486Z,340
2016-08-07T07:44:10.467Z,310
2016-08-07T07:45:23.541Z,290
2016-08-07T07:46:36.533Z,275
2016-08-07T07:47:49.603Z,275
2016-08-07T08:02:36.446Z,310
2016-08-07T08:03:49.637Z,320
2016-08-07T08:05:02.607Z,330
2016-08-07T08:06:15.598Z,345
2016-08-07T08:07:28.992Z,365
2016-08-07T08:08:41.973Z,375
2016-08-07T08:09:54.953Z,390
2016-08-07T08:11:07.932Z,435
2016-08-07T08:12:20.919Z,565
2016-08-07T08:13:33.894Z,675
2016-08-07T08:14:46.870Z,1425
2016-08-07T08:16:00.063Z,635
2016-08-07T08:17:13.035Z,515
2016-08-07T08:18:26.031Z,470
2016-08-07T08:19:39.007Z,490
2016-08-07T08:20:51.980Z,565
2016-08-07T08:22:04.965Z,590
2016-08-07T08:23:18.153Z,615
2016-08-07T08:24:31.147Z,855
2016-08-07T08:25:44.130Z,820
2016-08-07T08:26:57.099Z,1395
2016-08-07T08:28:10.074Z,940
2016-08-07T08:29:23.060Z,785
2016-08-07T08:30:36.037Z,1225
2016-08-07T08:31:49.418Z,885
2016-08-07T08:33:02.395Z,1185
2016-08-07T08:34:15.426Z,920
2016-08-07T08:35:28.620Z,920
2016-08-07T08:36:41.606Z,1050
2016-08-07T08:37:54.593Z,1320
2016-08-07T08:39:07.571Z,810
2016-08-07T08:40:20.557Z,945
2016-08-07T08:41:33.542Z,805
2016-08-07T08:42:46.720Z,605
2016-08-07T08:43:59.906Z,570
2016-08-07T08:45:12.899Z,560
2016-08-07T08:46:25.894Z,525
2016-08-07T08:47:38.875Z,545
2016-08-07T08:48:51.852Z,885
2016-08-07T08:50:04.839Z,1060
2016-08-07T08:51:17.820Z,730
2016-08-07T08:52:30.811Z,645
2016-08-07T08:53:43.792Z,2340
2016-08-07T08:54:56.769Z,560
2016-08-07T08:56:09.748Z,575
2016-08-07T08:57:22.729Z,530
2016-08-07T08:58:35.728Z,530
2016-08-07T08:59:48.908Z,1330
2016-08-07T09:01:01.888Z,1150
2016-08-07T09:02:14.913Z,1145
2016-08-07T09:03:27.890Z,880
2016-08-07T09:04:40.871Z,860
2016-08-07T09:05:53.849Z,790
2016-08-07T09:07:06.817Z,880
2016-08-07T09:08:19.529Z,935
2016-08-07T09:09:32.565Z,930
2016-08-07T09:10:45.562Z,740
2016-08-07T09:11:58.561Z,685
2016-08-07T09:13:11.742Z,685
2016-08-07T09:14:24.920Z,765
2016-08-07T09:15:37.916Z,775
2016-08-07T09:16:51.122Z,2075
2016-08-07T09:18:04.103Z,2320
2016-08-07T09:19:17.284Z,895
2016-08-07T09:20:30.271Z,725
2016-08-07T09:21:43.251Z,1270
2016-08-07T09:22:56.233Z,880
2016-08-07T09:24:09.214Z,2155
2016-08-07T09:25:22.208Z,1475
2016-08-07T09:26:35.193Z,1545
2016-08-07T09:27:48.178Z,1595
2016-08-07T09:29:01.166Z,2265
2016-08-07T09:30:14.348Z,1775
2016-08-07T09:31:27.340Z,1795
2016-08-07T09:32:40.323Z,1950
2016-08-07T09:33:53.324Z,2095
2016-08-07T09:35:06.309Z,1725
2016-08-07T09:36:19.303Z,1880
2016-08-07T09:37:32.290Z,1730
2016-08-07T09:38:44.810Z,1345
2016-08-07T09:39:57.805Z,1385
2016-08-07T09:41:10.790Z,990
2016-08-07T09:42:23.781Z,2135
2016-08-07T09:43:36.970Z,1400
2016-08-07T09:44:49.954Z,1725
2016-08-07T09:46:02.936Z,1860
2016-08-07T09:47:15.939Z,1685
2016-08-07T09:48:28.930Z,1115
2016-08-07T09:49:41.923Z,2495
2016-08-07T09:50:54.910Z,1925
2016-08-07T09:52:07.898Z,1145
2016-08-07T09:54:32.492Z,1195
2016-08-07T09:55:45.485Z,1040
2016-08-07T09:56:58.469Z,2105
2016-08-07T09:58:11.471Z,820
2016-08-07T09:59:24.457Z,1860
2016-08-07T10:00:37.446Z,2365
2016-08-07T10:01:50.432Z,1985
2016-08-07T10:03:03.430Z,1205
2016-08-07T10:04:16.420Z,800
2016-08-07T10:05:29.608Z,1335
2016-08-07T10:06:42.590Z,1055
2016-08-07T10:07:55.578Z,1515
2016-08-07T10:09:08.569Z,1390
2016-08-07T10:10:21.550Z,1610
2016-08-07T10:11:34.537Z,1720
2016-08-07T10:12:47.539Z,1640
2016-08-07T10:14:00.525Z,2100
2016-08-07T10:15:13.515Z,2130
2016-08-07T10:16:26.706Z,1295
2016-08-07T10:17:39.689Z,1080
2016-08-07T10:18:52.685Z,1570
2016-08-07T10:20:05.683Z,820
2016-08-07T10:21:18.873Z,1110
2016-08-07T10:22:31.844Z,1050
2016-08-07T10:23:44.839Z,925
2016-08-07T10:24:57.825Z,825
2016-08-07T10:26:10.818Z,935
2016-08-07T10:27:23.814Z,765
2016-08-07T10:28:36.803Z,1155
2016-08-07T10:29:49.997Z,1260
2016-08-07T10:31:02.981Z,775
2016-08-07T10:32:15.969Z,815
2016-08-07T10:33:29.254Z,1185
2016-08-07T10:34:42.252Z,1325
2016-08-07T10:35:55.244Z,1455
2016-08-07T10:37:08.248Z,1020
2016-08-07T10:38:21.441Z,685
2016-08-07T10:39:34.423Z,720
2016-08-07T10:40:47.629Z,705
2016-08-07T10:42:00.616Z,800
2016-08-07T10:43:13.606Z,650
2016-08-07T10:44:26.603Z,800
2016-08-07T10:45:39.588Z,1255
2016-08-07T10:46:52.577Z,1170
2016-08-07T10:48:05.569Z,1995
2016-08-07T10:49:18.568Z,2035
2016-08-07T10:50:31.559Z,1815
2016-08-07T10:51:44.550Z,1570
2016-08-07T10:52:57.538Z,1825
2016-08-07T10:54:10.523Z,1865
2016-08-07T10:55:23.511Z,1920
2016-08-07T10:56:36.507Z,1545
2016-08-07T10:57:49.505Z,1385
2016-08-07T10:59:02.697Z,1775
2016-08-07T11:00:15.683Z,1750
2016-08-07T11:01:28.874Z,1630
2016-08-07T11:02:41.875Z,1745
2016-08-07T11:03:54.872Z,1715
2016-08-07T11:05:07.856Z,1650
2016-08-07T11:06:20.836Z,1680
2016-08-07T11:07:34.042Z,1620
2016-08-07T11:08:46.107Z,1685
2016-08-07T11:09:59.099Z,1645
2016-08-07T11:11:12.094Z,1665
2016-08-07T11:12:25.087Z,1550
2016-08-07T11:13:38.076Z,1615
2016-08-07T11:14:51.254Z,1685
2016-08-07T11:16:04.856Z,1700
2016-08-07T11:17:18.058Z,1385
2016-08-07T11:18:31.054Z,1585
2016-08-07T11:19:44.040Z,1325
2016-08-07T11:20:57.042Z,1145
2016-08-07T11:22:10.038Z,1425
2016-08-07T11:23:23.025Z,1325
2016-08-07T11:24:36.019Z,1355
2016-08-07T11:25:49.010Z,1505
2016-08-07T11:27:02.007Z,1315
2016-08-07T11:28:15.013Z,1310
2016-08-07T11:29:28.011Z,1450
2016-08-07T11:30:41.195Z,1445
2016-08-07T11:31:54.183Z,1460
2016-08-07T11:33:07.177Z,1245
2016-08-07T11:34:20.370Z,1335
2016-08-07T11:35:33.562Z,1315
2016-08-07T11:36:46.556Z,1255
2016-08-07T11:37:59.557Z,1290
2016-08-07T11:39:12.553Z,1245
2016-08-07T11:40:25.559Z,1195
2016-08-07T11:41:38.756Z,1295
2016-08-07T11:42:51.757Z,1140
2016-08-07T11:44:04.734Z,980
2016-08-07T11:45:17.713Z,1185
2016-08-07T11:46:30.701Z,1175
2016-08-07T11:47:43.680Z,965
2016-08-07T11:48:56.664Z,930
2016-08-07T11:50:09.645Z,930
2016-08-07T11:51:22.634Z,1070
2016-08-07T11:52:35.623Z,1060
2016-08-07T11:55:01.534Z,1150
2016-08-07T11:56:14.524Z,900
2016-08-07T11:57:27.511Z,1045
2016-08-07T11:58:40.934Z,1245
2016-08-07T11:59:54.416Z,1095
2016-08-07T12:01:08.638Z,1295
2016-08-07T12:02:20.699Z,1290
2016-08-07T12:03:33.887Z,1265
2016-08-07T12:04:46.868Z,1140
2016-08-07T12:06:00.060Z,990
2016-08-07T12:07:13.055Z,1100
2016-08-07T12:08:26.055Z,1095
2016-08-07T12:09:39.108Z,1100
2016-08-07T12:10:52.091Z,1085
2016-08-07T12:12:05.079Z,905
2016-08-07T12:13:18.267Z,1090
2016-08-07T12:14:31.461Z,1015
2016-08-07T12:15:44.451Z,1085
2016-08-07T12:16:57.644Z,1085
2016-08-07T12:18:10.631Z,1070
2016-08-07T12:19:23.828Z,1015
2016-08-07T12:20:37.021Z,1010
2016-08-07T12:21:50.022Z,1015
2016-08-07T12:23:03.206Z,1000
2016-08-07T12:24:15.264Z,980
2016-08-07T12:25:28.270Z,970
2016-08-07T12:26:41.256Z,975
2016-08-07T12:27:54.250Z,940
2016-08-07T12:29:07.253Z,915
2016-08-07T12:30:20.259Z,715
2016-08-07T12:31:33.252Z,915
2016-08-07T12:32:46.249Z,880
2016-08-07T12:33:59.233Z,855
2016-08-07T12:35:12.427Z,870
2016-08-07T12:36:25.634Z,850
2016-08-07T12:37:38.615Z,825
2016-08-07T12:38:51.619Z,815
2016-08-07T12:40:04.616Z,785
2016-08-07T12:41:17.603Z,775
2016-08-07T12:42:30.607Z,755
2016-08-07T12:43:43.615Z,755
2016-08-07T12:44:56.798Z,745
2016-08-07T12:46:10.494Z,725
2016-08-07T12:47:23.938Z,710
2016-08-07T12:48:37.468Z,445
2016-08-07T12:49:50.649Z,700
2016-08-07T12:51:03.641Z,690
2016-08-07T12:52:16.623Z,660
2016-08-07T12:53:29.601Z,650
2016-08-07T12:54:42.588Z,640
2016-08-07T12:55:55.569Z,605
2016-08-07T12:57:08.552Z,600
2016-08-07T12:58:21.555Z,610
2016-08-07T12:59:34.539Z,610
2016-08-07T13:00:47.531Z,595
2016-08-07T13:02:00.529Z,485
2016-08-07T13:03:13.515Z,495
2016-08-07T13:04:26.707Z,270
2016-08-07T13:05:39.697Z,315
2016-08-07T13:06:52.882Z,310
2016-08-07T13:08:05.870Z,355
2016-08-07T13:10:30.452Z,390
2016-08-07T13:11:43.428Z,400
2016-08-07T13:12:56.610Z,585
2016-08-07T13:14:09.598Z,475
2016-08-07T13:15:22.597Z,510
2016-08-07T13:16:35.583Z,420
2016-08-07T13:17:48.630Z,395
2016-08-07T13:19:01.614Z,415
2016-08-07T13:20:14.609Z,415
2016-08-07T13:21:27.603Z,505
2016-08-07T13:22:40.597Z,440
2016-08-07T13:23:53.586Z,450
2016-08-07T13:25:06.575Z,445
2016-08-07T13:26:19.559Z,430
2016-08-07T13:27:32.542Z,425
2016-08-07T13:28:45.528Z,415
2016-08-07T13:29:58.517Z,430
2016-08-07T13:31:11.521Z,460
2016-08-07T13:32:24.504Z,475
2016-08-07T13:33:37.714Z,515
2016-08-07T13:34:50.700Z,500
2016-08-07T13:36:03.694Z,460
2016-08-07T13:37:16.675Z,455
2016-08-07T13:38:29.860Z,435
2016-08-07T13:39:42.592Z,405
2016-08-07T13:40:55.572Z,320
2016-08-07T13:42:08.553Z,295
2016-08-07T13:43:21.746Z,295
2016-08-07T13:44:35.413Z,310
2016-08-07T13:45:49.043Z,320
2016-08-07T13:47:02.644Z,335
2016-08-07T13:48:16.329Z,345
2016-08-07T13:49:29.992Z,350
2016-08-07T13:50:43.371Z,380
2016-08-07T13:51:57.001Z,380
2016-08-07T13:53:10.593Z,400
2016-08-07T13:55:36.862Z,430
2016-08-07T13:56:50.278Z,450
2016-08-07T13:58:03.793Z,400
2016-08-07T13:59:17.307Z,395
2016-08-07T14:00:30.833Z,380
2016-08-07T14:01:44.298Z,350
2016-08-07T14:02:57.712Z,345
2016-08-07T14:04:11.269Z,345
2016-08-07T14:05:24.599Z,360
2016-08-07T14:06:38.219Z,360
2016-08-07T14:07:51.924Z,345
2016-08-07T14:09:05.502Z,335
2016-08-07T14:10:18.942Z,325
2016-08-07T14:11:32.315Z,335
2016-08-07T14:12:45.704Z,340
2016-08-07T14:13:58.693Z,350
2016-08-07T14:15:11.716Z,355
2016-08-07T14:16:25.290Z,355
2016-08-07T14:17:38.661Z,335
2016-08-07T14:18:51.670Z,320
2016-08-07T14:20:04.662Z,320
2016-08-07T14:21:18.300Z,330
2016-08-07T14:22:31.504Z,350
2016-08-07T14:23:44.488Z,360
2016-08-07T14:24:57.477Z,335
2016-08-07T14:26:10.459Z,300
2016-08-07T14:27:23.440Z,295
2016-08-07T14:28:36.439Z,330
2016-08-07T14:29:49.633Z,345
2016-08-07T14:31:02.621Z,340
2016-08-07T14:32:15.606Z,310
2016-08-07T14:33:28.592Z,320
2016-08-07T14:34:41.578Z,305
2016-08-07T14:35:54.567Z,315
2016-08-07T14:37:07.549Z,310
2016-08-07T14:38:20.799Z,280
2016-08-07T14:40:46.559Z,275
2016-08-07T14:41:59.970Z,260
2016-08-07T14:43:13.308Z,240
2016-08-07T14:44:26.636Z,265
2016-08-07T14:45:40.091Z,260
2016-08-07T14:46:53.648Z,245
2016-08-07T14:48:07.106Z,235
2016-08-07T14:49:20.407Z,225
2016-08-07T14:50:33.815Z,210
2016-08-07T14:51:47.111Z,205
2016-08-07T14:53:00.991Z,225
2016-08-07T14:54:14.120Z,220
2016-08-07T14:55:27.504Z,225
2016-08-07T14:56:40.823Z,230
2016-08-07T14:57:54.424Z,245
2016-08-07T14:59:07.434Z,250
2016-08-07T15:00:20.618Z,240
2016-08-07T15:01:33.935Z,225
2016-08-07T15:02:47.246Z,215
2016-08-07T15:04:00.452Z,215
2016-08-07T15:05:13.433Z,215
2016-08-07T15:06:27.380Z,220
2016-08-07T15:07:40.707Z,230
2016-08-07T15:08:53.857Z,225
2016-08-07T15:10:06.879Z,240
2016-08-07T15:11:19.866Z,255
2016-08-07T15:12:33.181Z,265
2016-08-07T15:13:46.617Z,265
2016-08-07T15:15:00.399Z,255
2016-08-07T15:16:14.079Z,260
2016-08-07T15:17:27.616Z,270
2016-08-07T15:18:41.188Z,260
2016-08-07T15:19:54.997Z,245
2016-08-07T15:21:08.218Z,225
2016-08-07T15:22:21.604Z,205
2016-08-07T15:23:35.352Z,190
2016-08-07T15:26:00.883Z,175
2016-08-07T15:27:13.872Z,175
2016-08-07T15:28:26.869Z,160
2016-08-07T15:29:40.929Z,160
2016-08-07T15:30:53.939Z,155
2016-08-07T15:32:07.119Z,150
2016-08-07T15:33:20.303Z,155
2016-08-07T15:34:33.289Z,150
2016-08-07T15:35:46.743Z,145
2016-08-07T15:37:00.269Z,150
2016-08-07T15:38:13.263Z,165
2016-08-07T15:39:26.241Z,165
2016-08-07T15:40:39.223Z,160
2016-08-07T15:41:52.205Z,150
2016-08-07T15:43:05.184Z,150
2016-08-07T15:44:18.161Z,155
2016-08-07T15:45:31.155Z,145
2016-08-07T15:46:44.331Z,140
2016-08-07T15:47:57.587Z,140
2016-08-07T15:49:11.107Z,155
2016-08-07T15:50:24.544Z,180
2016-08-07T15:51:38.017Z,195
2016-08-07T15:52:51.515Z,190
2016-08-07T15:54:04.854Z,190
2016-08-07T15:55:18.258Z,190
2016-08-07T15:56:31.742Z,205
2016-08-07T15:57:45.368Z,210
2016-08-07T15:58:59.097Z,190
2016-08-07T16:00:12.978Z,180
2016-08-07T16:01:25.962Z,180
2016-08-07T16:02:38.952Z,175
2016-08-07T16:03:51.932Z,145
2016-08-07T16:05:04.911Z,130
2016-08-07T16:06:17.891Z,115
2016-08-07T16:07:30.868Z,115
2016-08-07T16:08:44.051Z,115
2016-08-07T16:11:09.349Z,115
2016-08-07T16:12:22.332Z,95
2016-08-07T16:13:35.312Z,90
2016-08-07T16:14:48.496Z,90
2016-08-07T16:16:01.488Z,90
2016-08-07T16:17:14.469Z,80
2016-08-07T16:18:27.454Z,75
2016-08-07T16:19:40.430Z,70
2016-08-07T16:20:53.619Z,75
2016-08-07T16:22:06.599Z,75
2016-08-07T16:23:19.835Z,75
2016-08-07T16:24:33.199Z,75
2016-08-07T16:25:46.623Z,75
2016-08-07T16:27:00.105Z,75
2016-08-07T16:28:13.610Z,80
2016-08-07T16:29:27.343Z,75
2016-08-07T16:30:40.731Z,70
2016-08-07T16:31:54.221Z,70
2016-08-07T16:33:07.595Z,75
2016-08-07T16:34:21.047Z,70
2016-08-07T16:35:34.410Z,75
2016-08-07T16:36:48.008Z,85
2016-08-07T16:38:01.018Z,80
2016-08-07T16:39:13.996Z,85
2016-08-07T16:40:25.592Z,90
2016-08-07T16:41:38.569Z,100
2016-08-07T16:42:51.561Z,110
2016-08-07T16:44:04.544Z,125
2016-08-07T16:45:17.527Z,130
2016-08-07T16:46:30.521Z,130
2016-08-07T16:47:43.504Z,120
2016-08-07T16:48:56.499Z,130
2016-08-07T16:50:09.694Z,135
2016-08-07T16:51:22.676Z,130
2016-08-07T16:52:35.661Z,125
2016-08-07T16:53:48.642Z,115
2016-08-07T16:55:01.833Z,115
2016-08-07T16:56:14.816Z,120
2016-08-07T16:57:27.798Z,120
2016-08-07T16:58:40.796Z,110
2016-08-07T16:59:53.770Z,100
2016-08-07T17:01:06.759Z,95
2016-08-07T17:02:19.732Z,95
2016-08-07T17:03:32.722Z,90
2016-08-07T17:04:45.700Z,95
2016-08-07T17:05:58.682Z,100
2016-08-07T17:07:11.863Z,105
2016-08-07T17:08:24.849Z,105
2016-08-07T17:09:37.838Z,105
2016-08-07T17:10:50.814Z,95
2016-08-07T17:12:04.004Z,95
2016-08-07T17:13:16.984Z,105
2016-08-07T17:14:29.961Z,110
2016-08-07T17:15:43.548Z,105
2016-08-07T17:16:56.920Z,105
2016-08-07T17:18:10.415Z,100
2016-08-07T17:19:23.787Z,90
2016-08-07T17:20:37.225Z,85
2016-08-07T17:21:50.701Z,80
2016-08-07T17:23:04.532Z,65
2016-08-07T17:24:17.545Z,55
2016-08-07T17:25:29.144Z,55
2016-08-07T17:26:42.421Z,50